Time;durP1;ratioP1;P1;durP2;ratioP2;P2;SDS_P1;SDS_P2;PMS_P1;PMS_P2;Temp;Humidity;BMP_temperature;BMP_pressure;BME280_temperature;BME280_humidity;BME280_pressure;Samples;Min_cycle;Max_cycle;Signal;HPM_P1;HPM_P2
2023/04/01 00:00:04;;;;;;;8.40;4.17;;;20.30;62.80;;;;;;5101248;28;20468;-84
2023/04/01 00:02:32;;;;;;;5.73;3.90;;;20.30;62.60;;;;;;5113914;28;20431;-84
2023/04/01 00:05:00;;;;;;;5.30;4.03;;;20.30;62.70;;;;;;5105435;28;20562;-84
2023/04/01 00:07:28;;;;;;;4.07;3.77;;;20.30;62.80;;;;;;5116750;27;20464;-84
2023/04/01 00:09:59;;;;;;;4.07;3.50;;;20.30;62.90;;;;;;5115226;27;20521;-84
2023/04/01 00:12:27;;;;;;;5.20;4.13;;;20.30;63.00;;;;;;5115232;27;20538;-84
2023/04/01 00:14:55;;;;;;;4.00;3.60;;;20.30;62.80;;;;;;5115738;28;20459;-84
2023/04/01 00:17:23;;;;;;;4.90;3.30;;;20.30;62.90;;;;;;5119634;27;20470;-84
2023/04/01 00:19:51;;;;;;;4.00;3.60;;;20.20;63.00;;;;;;5117808;28;20451;-84
2023/04/01 00:22:20;;;;;;;3.80;3.30;;;20.20;62.80;;;;;;5120788;28;20440;-84
2023/04/01 00:24:48;;;;;;;4.40;3.27;;;20.30;63.10;;;;;;5118708;28;20464;-84
2023/04/01 00:27:18;;;;;;;4.97;3.60;;;20.30;63.00;;;;;;5117115;27;21035;-84
2023/04/01 00:29:47;;;;;;;5.70;3.50;;;20.20;63.00;;;;;;5105094;27;20452;-84
2023/04/01 00:32:15;;;;;;;5.20;3.77;;;20.20;62.90;;;;;;5116836;28;20458;-83
2023/04/01 00:34:44;;;;;;;3.50;3.20;;;20.20;62.90;;;;;;5119624;28;20444;-84
2023/04/01 00:37:12;;;;;;;5.83;3.80;;;20.20;62.90;;;;;;5110530;28;20443;-84
2023/04/01 00:39:40;;;;;;;4.97;4.43;;;20.20;62.90;;;;;;5110862;28;20451;-85
2023/04/01 00:42:10;;;;;;;9.40;6.73;;;20.20;63.00;;;;;;5113659;28;20444;-84
2023/04/01 00:44:40;;;;;;;8.87;6.77;;;20.20;62.70;;;;;;5114177;27;20494;-84
2023/04/01 00:47:08;;;;;;;11.00;8.20;;;20.20;62.90;;;;;;5112122;28;20456;-84
2023/04/01 00:49:38;;;;;;;12.83;8.60;;;20.20;63.10;;;;;;5109845;28;20481;-85
2023/04/01 00:52:06;;;;;;;16.37;10.50;;;20.20;63.00;;;;;;5112751;28;20455;-84
2023/04/01 00:54:34;;;;;;;15.00;11.53;;;20.20;63.00;;;;;;5112603;28;20539;-84
2023/04/01 00:57:04;;;;;;;15.70;11.00;;;20.20;63.00;;;;;;5105736;28;20440;-84
2023/04/01 00:59:33;;;;;;;17.10;11.47;;;20.20;63.00;;;;;;5119899;27;20450;-84
2023/04/01 01:02:03;;;;;;;21.53;13.33;;;20.20;63.10;;;;;;5111993;28;20450;-84
2023/04/01 01:04:32;;;;;;;20.40;12.97;;;20.20;63.00;;;;;;5112210;27;20467;-85
2023/04/01 01:07:09;;;;;;;19.10;12.80;;;20.10;63.00;;;;;;5106788;28;20477;-84
2023/04/01 01:09:42;;;;;;;18.77;12.93;;;20.10;62.90;;;;;;5114490;27;20454;-85
2023/04/01 01:12:12;;;;;;;20.17;13.50;;;20.10;62.90;;;;;;5113431;27;20866;-84
2023/04/01 01:14:50;;;;;;;21.20;15.00;;;20.20;63.10;;;;;;5110256;28;20527;-84
2023/04/01 01:17:23;;;;;;;20.10;13.87;;;20.10;62.90;;;;;;5114179;28;20873;-84
2023/04/01 01:20:06;;;;;;;19.50;14.07;;;20.10;63.00;;;;;;5113749;27;20446;-84
2023/04/01 01:22:57;;;;;;;20.73;14.20;;;20.10;63.10;;;;;;5112723;28;20462;-84
2023/04/01 01:25:33;;;;;;;19.53;13.60;;;20.10;63.00;;;;;;5110047;27;20467;-84
2023/04/01 01:28:12;;;;;;;20.90;13.57;;;20.10;63.00;;;;;;5112019;27;20559;-84
2023/04/01 01:30:43;;;;;;;17.87;13.30;;;20.10;63.10;;;;;;5111246;28;20470;-84
2023/04/01 01:33:17;;;;;;;19.50;14.37;;;20.10;63.10;;;;;;5112517;28;20450;-85
2023/04/01 01:35:47;;;;;;;19.80;14.60;;;20.10;63.10;;;;;;5112460;27;20440;-85
2023/04/01 01:38:16;;;;;;;21.70;15.37;;;20.10;63.30;;;;;;5106844;28;20524;-84
2023/04/01 01:40:45;;;;;;;19.40;13.67;;;20.10;63.00;;;;;;5108152;27;20459;-83
2023/04/01 01:43:15;;;;;;;22.67;14.70;;;20.10;63.00;;;;;;5109948;28;20460;-84
2023/04/01 01:45:45;;;;;;;22.73;14.90;;;20.10;63.10;;;;;;5113090;28;20463;-85
2023/04/01 01:48:13;;;;;;;19.40;14.50;;;20.10;63.10;;;;;;5112645;28;20452;-85
2023/04/01 01:50:41;;;;;;;21.47;15.00;;;20.10;63.10;;;;;;5113169;28;20454;-85
2023/04/01 01:53:11;;;;;;;20.43;13.80;;;20.10;63.00;;;;;;5113301;27;20931;-84
2023/04/01 01:55:40;;;;;;;20.40;14.73;;;20.10;63.20;;;;;;5115117;28;20440;-84
2023/04/01 01:58:10;;;;;;;20.10;14.33;;;20.10;63.10;;;;;;5104954;28;20471;-84
2023/04/01 02:00:38;;;;;;;19.30;13.83;;;20.00;63.00;;;;;;5113521;28;20434;-84
2023/04/01 02:03:06;;;;;;;20.17;14.60;;;20.00;62.90;;;;;;5113294;28;20451;-84
2023/04/01 02:05:35;;;;;;;16.83;12.80;;;20.10;63.10;;;;;;5113749;28;20525;-84
2023/04/01 02:08:06;;;;;;;22.10;14.30;;;20.00;63.10;;;;;;5112524;28;20554;-84
2023/04/01 02:10:37;;;;;;;16.53;12.10;;;20.00;63.10;;;;;;5112209;27;20440;-84
2023/04/01 02:13:08;;;;;;;19.10;13.10;;;20.00;63.00;;;;;;5111061;28;20448;-84
2023/04/01 02:15:38;;;;;;;16.27;13.03;;;20.00;63.10;;;;;;5111047;27;20441;-84
2023/04/01 02:18:06;;;;;;;17.33;12.50;;;20.00;63.10;;;;;;5103928;28;20983;-84
2023/04/01 02:20:34;;;;;;;17.03;12.37;;;20.00;63.00;;;;;;5110831;27;20454;-84
2023/04/01 02:23:03;;;;;;;17.53;12.50;;;20.00;63.00;;;;;;5111539;27;20443;-84
2023/04/01 02:25:34;;;;;;;15.60;12.30;;;20.00;62.90;;;;;;5110740;27;20474;-84
2023/04/01 02:28:04;;;;;;;17.57;12.40;;;20.00;63.00;;;;;;5114951;28;20455;-84
2023/04/01 02:30:32;;;;;;;15.60;11.50;;;20.00;63.20;;;;;;5114969;27;20459;-84
2023/04/01 02:33:00;;;;;;;18.03;12.03;;;20.00;63.10;;;;;;5121370;28;20455;-85
2023/04/01 02:35:28;;;;;;;14.40;11.10;;;20.00;63.00;;;;;;5122217;27;20463;-85
2023/04/01 02:37:56;;;;;;;14.50;10.90;;;19.90;63.00;;;;;;5117946;28;20470;-84
2023/04/01 02:40:24;;;;;;;15.33;11.77;;;19.90;63.00;;;;;;5134598;27;20483;-84
2023/04/01 02:42:52;;;;;;;15.03;11.37;;;20.00;63.10;;;;;;5114509;28;20432;-84
2023/04/01 02:45:22;;;;;;;14.63;10.87;;;19.90;63.00;;;;;;5114900;27;20469;-85
2023/04/01 02:47:50;;;;;;;16.17;12.03;;;19.90;63.00;;;;;;5117104;27;20474;-85
2023/04/01 02:50:18;;;;;;;13.27;10.63;;;19.90;62.90;;;;;;5114669;27;20537;-84
2023/04/01 02:52:46;;;;;;;12.50;10.20;;;19.90;63.10;;;;;;5109722;28;20473;-84
2023/04/01 02:55:14;;;;;;;12.87;10.07;;;19.90;63.10;;;;;;5116343;27;20505;-84
2023/04/01 02:57:42;;;;;;;12.83;10.67;;;19.90;62.90;;;;;;5116186;28;20550;-84
2023/04/01 03:00:11;;;;;;;15.00;10.40;;;19.90;63.00;;;;;;5116614;28;20420;-84
2023/04/01 03:02:41;;;;;;;13.33;10.00;;;19.90;63.10;;;;;;5111910;27;20456;-84
2023/04/01 03:05:09;;;;;;;11.27;9.20;;;19.90;63.00;;;;;;5102081;28;20543;-84
2023/04/01 03:07:37;;;;;;;13.60;9.77;;;19.90;63.20;;;;;;5114596;28;20471;-84
2023/04/01 03:10:07;;;;;;;15.03;10.30;;;19.90;63.10;;;;;;5106154;28;20444;-83
2023/04/01 03:12:35;;;;;;;13.87;10.07;;;19.90;63.30;;;;;;5114557;27;20447;-84
2023/04/01 03:15:04;;;;;;;11.83;9.33;;;19.90;63.10;;;;;;5114703;27;20444;-84
2023/04/01 03:17:39;;;;;;;12.20;9.00;;;19.90;63.20;;;;;;5113489;28;20528;-84
2023/04/01 03:20:10;;;;;;;12.00;9.40;;;19.90;63.10;;;;;;5111199;27;20472;-84
2023/04/01 03:22:38;;;;;;;11.20;9.00;;;19.90;63.10;;;;;;5114415;28;20444;-84
2023/04/01 03:25:10;;;;;;;11.60;9.43;;;19.80;63.30;;;;;;5109672;28;20443;-84
2023/04/01 03:27:38;;;;;;;10.43;8.63;;;19.80;63.20;;;;;;5113396;27;20475;-84
2023/04/01 03:30:08;;;;;;;11.93;9.20;;;19.80;63.20;;;;;;5112417;28;20536;-84
2023/04/01 03:32:36;;;;;;;11.90;8.87;;;19.90;63.30;;;;;;5113979;28;20446;-84
2023/04/01 03:35:06;;;;;;;11.37;9.13;;;19.90;63.20;;;;;;5112847;28;20497;-84
2023/04/01 03:37:34;;;;;;;10.40;8.30;;;19.80;63.10;;;;;;5109671;27;20479;-84
2023/04/01 03:40:02;;;;;;;11.60;8.73;;;19.80;63.20;;;;;;5114707;27;20446;-84
2023/04/01 03:42:32;;;;;;;11.57;8.43;;;19.80;63.20;;;;;;5114307;28;20475;-83
2023/04/01 03:45:00;;;;;;;9.67;7.97;;;19.90;63.50;;;;;;5114889;27;20474;-85
2023/04/01 03:47:28;;;;;;;10.17;8.00;;;19.80;63.30;;;;;;5113970;28;20498;-84
2023/04/01 03:49:56;;;;;;;9.83;7.93;;;19.80;63.40;;;;;;5112968;27;20471;-85
2023/04/01 03:52:26;;;;;;;8.67;7.40;;;19.80;63.20;;;;;;5112006;27;20558;-84
2023/04/01 03:54:54;;;;;;;10.63;7.30;;;19.80;63.20;;;;;;5109267;28;20468;-84
2023/04/01 03:57:22;;;;;;;9.27;7.93;;;19.80;63.30;;;;;;5114573;28;20463;-84
2023/04/01 03:59:50;;;;;;;9.23;7.33;;;19.80;63.30;;;;;;5116030;27;20455;-84
2023/04/01 04:02:18;;;;;;;8.03;7.13;;;19.80;63.20;;;;;;5121874;28;20442;-84
2023/04/01 04:04:47;;;;;;;10.17;7.93;;;19.80;63.30;;;;;;5112023;27;20486;-84
2023/04/01 04:07:15;;;;;;;9.07;7.80;;;19.80;63.30;;;;;;5111403;28;20473;-84
2023/04/01 04:09:45;;;;;;;8.30;7.33;;;19.80;63.30;;;;;;5112107;27;20440;-84
2023/04/01 04:12:12;;;;;;;8.47;7.10;;;19.80;63.20;;;;;;5112850;28;20448;-84
2023/04/01 04:14:40;;;;;;;9.03;7.17;;;19.80;63.30;;;;;;5113332;28;20424;-85
2023/04/01 04:17:13;;;;;;;8.30;6.90;;;19.80;63.40;;;;;;5112346;28;20442;-84
2023/04/01 04:19:41;;;;;;;8.03;6.80;;;19.80;63.30;;;;;;5105664;28;20466;-84
2023/04/01 04:22:09;;;;;;;7.10;6.40;;;19.80;63.50;;;;;;5113051;27;20450;-84
2023/04/01 04:24:37;;;;;;;7.13;6.40;;;19.80;63.30;;;;;;5112283;28;20456;-84
2023/04/01 04:27:07;;;;;;;7.90;6.90;;;19.80;63.30;;;;;;5109375;28;20464;-83
2023/04/01 04:29:35;;;;;;;8.97;6.80;;;19.80;63.30;;;;;;5113033;28;20451;-85
2023/04/01 04:32:03;;;;;;;7.43;6.53;;;19.80;63.40;;;;;;5113025;28;20452;-85
2023/04/01 04:34:32;;;;;;;9.00;7.10;;;19.80;63.40;;;;;;5112105;27;20440;-85
2023/04/01 04:36:59;;;;;;;8.17;6.80;;;19.80;63.30;;;;;;5111942;28;20428;-85
2023/04/01 04:39:28;;;;;;;8.50;6.53;;;19.80;63.30;;;;;;5112587;28;20431;-85
2023/04/01 04:41:56;;;;;;;7.87;6.40;;;19.70;63.30;;;;;;5104504;28;20455;-85
2023/04/01 04:44:25;;;;;;;7.00;6.20;;;19.70;63.40;;;;;;5112304;28;20436;-85
2023/04/01 04:46:53;;;;;;;7.50;6.30;;;19.80;63.40;;;;;;5111916;28;20577;-85
2023/04/01 04:49:25;;;;;;;7.60;6.00;;;19.80;63.30;;;;;;5105546;27;20448;-85
2023/04/01 04:51:53;;;;;;;6.60;5.87;;;19.70;63.40;;;;;;5112053;27;20459;-85
2023/04/01 04:54:21;;;;;;;8.07;6.50;;;19.70;63.40;;;;;;5112630;27;20444;-85
2023/04/01 04:56:49;;;;;;;7.83;5.90;;;19.80;63.50;;;;;;5112173;27;20435;-84
2023/04/01 04:59:17;;;;;;;7.50;6.43;;;19.70;63.40;;;;;;5109750;28;20468;-84
2023/04/01 05:01:46;;;;;;;6.83;6.10;;;19.70;63.30;;;;;;5112850;28;20451;-85
2023/04/01 05:04:15;;;;;;;6.37;5.77;;;19.70;63.40;;;;;;5111609;28;20455;-86
2023/04/01 05:06:44;;;;;;;6.83;6.07;;;19.70;63.40;;;;;;5106147;28;20522;-85
2023/04/01 05:09:11;;;;;;;6.67;5.63;;;19.70;63.30;;;;;;5107320;28;20463;-84
2023/04/01 05:11:40;;;;;;;7.67;6.10;;;19.70;63.40;;;;;;5113761;28;20447;-85
2023/04/01 05:14:13;;;;;;;6.60;5.97;;;19.70;63.40;;;;;;5103655;28;20442;-85
2023/04/01 05:16:41;;;;;;;7.97;6.17;;;19.70;63.50;;;;;;5110656;27;20467;-84
2023/04/01 05:19:11;;;;;;;6.37;5.77;;;19.70;63.30;;;;;;5111606;27;20994;-84
2023/04/01 05:21:39;;;;;;;5.63;5.13;;;19.70;63.50;;;;;;5107681;28;20432;-84
2023/04/01 05:24:09;;;;;;;5.70;5.20;;;19.70;63.30;;;;;;5097765;28;20454;-84
2023/04/01 05:26:37;;;;;;;11.13;5.50;;;19.70;63.40;;;;;;5111000;28;20512;-84
2023/04/01 05:29:05;;;;;;;6.13;5.53;;;19.70;63.50;;;;;;5112174;27;20455;-84
2023/04/01 05:31:33;;;;;;;6.57;5.47;;;19.70;63.50;;;;;;5111538;28;20444;-84
2023/04/01 05:34:01;;;;;;;5.37;4.87;;;19.70;63.50;;;;;;5112197;28;20454;-84
2023/04/01 05:36:31;;;;;;;5.30;4.80;;;19.70;63.50;;;;;;5107347;27;20472;-84
2023/04/01 05:38:59;;;;;;;5.70;5.20;;;19.70;63.20;;;;;;5112424;27;20470;-84
2023/04/01 05:41:27;;;;;;;5.80;5.20;;;19.70;63.30;;;;;;5103580;28;20448;-84
2023/04/01 05:43:56;;;;;;;5.37;4.87;;;19.70;63.40;;;;;;5130000;27;20519;-86
2023/04/01 05:46:24;;;;;;;6.37;5.47;;;19.70;63.10;;;;;;5112227;27;20450;-85
2023/04/01 05:48:52;;;;;;;5.77;5.17;;;19.70;63.30;;;;;;5110352;27;20472;-85
2023/04/01 05:51:20;;;;;;;5.77;5.17;;;19.70;63.30;;;;;;5110035;27;20528;-85
2023/04/01 05:53:50;;;;;;;4.90;4.50;;;19.70;63.40;;;;;;5110654;28;20466;-85
2023/04/01 05:56:18;;;;;;;5.97;5.40;;;19.70;63.10;;;;;;5111983;28;20436;-85
2023/04/01 05:58:47;;;;;;;5.27;4.77;;;19.70;63.30;;;;;;5106737;28;20539;-84
2023/04/01 06:01:15;;;;;;;5.63;5.10;;;19.70;63.40;;;;;;5111633;28;20442;-84
2023/04/01 06:03:43;;;;;;;5.37;4.60;;;19.70;63.30;;;;;;5115254;27;20443;-84
2023/04/01 06:06:15;;;;;;;4.60;4.20;;;19.70;63.20;;;;;;5113265;27;20482;-84
2023/04/01 06:08:43;;;;;;;4.80;4.40;;;19.70;63.20;;;;;;5114910;27;20505;-84
2023/04/01 06:11:20;;;;;;;5.07;4.57;;;19.80;63.30;;;;;;5115835;28;20444;-84
2023/04/01 06:14:08;;;;;;;4.80;4.40;;;19.70;63.00;;;;;;5111082;27;20459;-83
2023/04/01 06:16:43;;;;;;;5.10;4.43;;;19.70;63.30;;;;;;5105219;28;20534;-84
2023/04/01 06:19:20;;;;;;;4.30;4.00;;;19.70;63.10;;;;;;5107643;28;20455;-84
2023/04/01 06:22:09;;;;;;;5.17;4.70;;;19.70;63.40;;;;;;5108036;28;20456;-84
2023/04/01 06:24:44;;;;;;;4.27;3.90;;;19.70;63.10;;;;;;5109501;28;20444;-84
2023/04/01 06:27:19;;;;;;;4.90;4.50;;;19.70;63.10;;;;;;5108137;28;20439;-83
2023/04/01 06:30:11;;;;;;;5.13;4.60;;;19.80;63.40;;;;;;5102586;27;20515;-84
2023/04/01 06:32:49;;;;;;;4.97;4.53;;;19.80;63.10;;;;;;5113147;28;20446;-86
2023/04/01 06:35:25;;;;;;;5.00;4.50;;;19.80;63.30;;;;;;5116702;27;20465;-84
2023/04/01 06:38:19;;;;;;;4.13;3.83;;;19.80;63.10;;;;;;5118238;28;20484;-84
2023/04/01 06:41:21;;;;;;;4.33;4.03;;;19.80;63.20;;;;;;5110348;28;20436;-84
2023/04/01 06:43:55;;;;;;;4.60;4.20;;;19.80;63.20;;;;;;5094140;28;20447;-84
2023/04/01 06:46:27;;;;;;;4.57;4.17;;;19.80;63.10;;;;;;5116990;28;20450;-81
2023/04/01 06:49:03;;;;;;;4.37;4.07;;;19.90;63.30;;;;;;5123659;28;20472;-83
2023/04/01 06:51:37;;;;;;;6.33;4.30;;;19.90;63.00;;;;;;5121587;27;20448;-81
2023/04/01 06:54:07;;;;;;;5.37;3.87;;;19.90;63.20;;;;;;5122227;28;20451;-83
2023/04/01 06:56:35;;;;;;;3.57;3.37;;;19.80;63.00;;;;;;5119684;28;20447;-85
2023/04/01 06:59:06;;;;;;;3.57;3.27;;;19.90;63.20;;;;;;5122840;28;20470;-84
2023/04/01 07:01:36;;;;;;;3.67;3.47;;;19.90;63.10;;;;;;5124734;27;21003;-81
2023/04/01 07:04:07;;;;;;;4.37;3.97;;;19.90;63.20;;;;;;5120007;28;20581;-80
2023/04/01 07:06:37;;;;;;;4.37;3.97;;;19.90;63.10;;;;;;5123335;28;20440;-81
2023/04/01 07:09:07;;;;;;;4.57;3.53;;;19.90;62.90;;;;;;5123184;28;20661;-87
2023/04/01 07:11:36;;;;;;;4.77;3.70;;;19.90;63.10;;;;;;5121570;27;20447;-84
2023/04/01 07:14:09;;;;;;;4.40;4.00;;;19.90;63.10;;;;;;5121949;28;20436;-84
2023/04/01 07:16:38;;;;;;;4.07;3.67;;;19.90;63.10;;;;;;5117254;27;20445;-86
2023/04/01 07:19:09;;;;;;;3.93;3.63;;;19.90;63.10;;;;;;5109435;28;20464;-85
2023/04/01 07:21:41;;;;;;;3.53;3.33;;;19.90;63.10;;;;;;5114689;27;20444;-85
2023/04/01 07:24:11;;;;;;;5.13;3.03;;;20.00;63.30;;;;;;5106625;28;20495;-85
2023/04/01 07:26:39;;;;;;;4.40;3.60;;;20.00;63.00;;;;;;5114793;28;20428;-86
2023/04/01 07:29:12;;;;;;;4.97;3.90;;;20.00;63.10;;;;;;5114446;27;20467;-85
2023/04/01 07:31:51;;;;;;;4.30;3.90;;;20.00;63.10;;;;;;5114955;27;20504;-85
2023/04/01 07:34:23;;;;;;;3.73;3.50;;;20.00;63.20;;;;;;5107969;28;20447;-85
2023/04/01 07:36:54;;;;;;;4.17;3.90;;;20.10;63.20;;;;;;5108982;28;20526;-85
2023/04/01 07:39:30;;;;;;;4.40;3.73;;;20.10;63.20;;;;;;5114181;27;20466;-85
2023/04/01 07:42:00;;;;;;;3.97;3.23;;;20.10;63.00;;;;;;5113906;28;20534;-85
2023/04/01 07:44:34;;;;;;;4.43;3.60;;;20.20;63.00;;;;;;5112684;27;20444;-85
2023/04/01 07:47:16;;;;;;;7.27;3.80;;;20.20;62.90;;;;;;5111995;28;20464;-86
2023/04/01 07:49:50;;;;;;;5.90;3.57;;;20.10;62.80;;;;;;5113409;28;20546;-86
2023/04/01 07:52:20;;;;;;;3.60;3.30;;;20.10;62.80;;;;;;5105594;28;20454;-86
2023/04/01 07:54:50;;;;;;;6.40;3.57;;;20.20;63.00;;;;;;5115082;28;20531;-85
2023/04/01 07:57:20;;;;;;;6.03;3.40;;;20.30;63.00;;;;;;5114588;27;20560;-86
2023/04/01 07:59:56;;;;;;;4.83;3.97;;;20.40;62.90;;;;;;5114416;28;20871;-85
2023/04/01 08:02:30;;;;;;;6.63;3.40;;;20.40;62.60;;;;;;5114567;27;20446;-86
2023/04/01 08:05:04;;;;;;;10.93;3.87;;;20.50;62.60;;;;;;5114500;28;20448;-85
2023/04/01 08:07:36;;;;;;;3.50;3.10;;;20.50;62.40;;;;;;5115074;27;20532;-85
2023/04/01 08:10:12;;;;;;;5.57;3.23;;;20.50;62.40;;;;;;5112417;27;20470;-85
2023/04/01 08:12:45;;;;;;;5.73;3.37;;;20.50;62.40;;;;;;5115040;27;20478;-85
2023/04/01 08:15:21;;;;;;;3.30;3.03;;;20.50;62.50;;;;;;5113967;27;20448;-85
2023/04/01 08:17:55;;;;;;;4.40;3.07;;;20.50;62.30;;;;;;5113685;28;20490;-85
2023/04/01 08:20:28;;;;;;;5.03;2.97;;;20.50;62.30;;;;;;5114023;28;20435;-85
2023/04/01 08:23:00;;;;;;;4.40;2.77;;;20.50;62.50;;;;;;5114219;27;20432;-85
2023/04/01 08:25:30;;;;;;;4.53;3.50;;;20.60;62.50;;;;;;5112559;27;20447;-84
2023/04/01 08:28:00;;;;;;;4.20;3.33;;;20.60;62.40;;;;;;5110064;28;20506;-85
2023/04/01 08:30:34;;;;;;;3.10;2.90;;;20.70;62.30;;;;;;5113730;27;20534;-83
2023/04/01 08:33:06;;;;;;;3.13;2.83;;;20.70;62.20;;;;;;5108631;28;20478;-84
2023/04/01 08:35:38;;;;;;;3.83;2.83;;;20.70;62.00;;;;;;5113801;28;20447;-84
2023/04/01 08:38:11;;;;;;;3.20;3.00;;;20.70;61.90;;;;;;5104873;28;20464;-84
2023/04/01 08:40:58;;;;;;;4.40;2.90;;;20.80;62.20;;;;;;5113614;28;20444;-83
2023/04/01 08:43:43;;;;;;;3.20;3.00;;;20.80;62.20;;;;;;5102825;28;20475;-84
2023/04/01 08:46:43;;;;;;;3.30;3.00;;;20.90;62.10;;;;;;5106081;28;20436;-85
2023/04/01 08:49:18;;;;;;;3.50;3.20;;;20.90;61.90;;;;;;5086702;28;20469;-84
2023/04/01 08:52:04;;;;;;;3.17;2.87;;;20.90;61.90;;;;;;5114277;28;20500;-84
2023/04/01 08:54:57;;;;;;;6.60;3.20;;;20.90;61.70;;;;;;5113729;27;20440;-84
2023/04/01 08:57:37;;;;;;;6.67;2.90;;;20.90;61.90;;;;;;5106903;28;20476;-83
2023/04/01 09:00:13;;;;;;;4.83;3.20;;;20.90;62.00;;;;;;5113337;27;20427;-84
2023/04/01 09:03:15;;;;;;;3.13;2.80;;;21.00;62.00;;;;;;5110763;28;20471;-83
2023/04/01 09:06:30;;;;;;;4.27;2.87;;;21.20;62.10;;;;;;5116283;28;20451;-84
2023/04/01 09:09:17;;;;;;;2.93;2.73;;;21.30;61.90;;;;;;5116215;27;20468;-84
2023/04/01 09:12:25;;;;;;;3.17;2.97;;;21.20;61.50;;;;;;5117229;27;20452;-84
2023/04/01 09:15:29;;;;;;;3.20;2.90;;;21.20;61.60;;;;;;5103117;28;20450;-84
2023/04/01 09:18:32;;;;;;;3.03;2.70;;;21.20;61.70;;;;;;5110788;27;20482;-85
2023/04/01 09:21:29;;;;;;;3.13;2.90;;;21.20;61.80;;;;;;5113441;28;20432;-84
2023/04/01 09:24:33;;;;;;;5.90;2.93;;;21.30;61.80;;;;;;5112118;28;20466;-84
2023/04/01 09:27:07;;;;;;;2.67;2.47;;;21.30;62.00;;;;;;5112642;27;20454;-84
2023/04/01 09:29:54;;;;;;;3.30;2.37;;;21.30;61.70;;;;;;5113809;28;20506;-82
2023/04/01 09:32:36;;;;;;;2.77;2.67;;;21.30;61.50;;;;;;5107814;28;20447;-84
2023/04/01 09:35:13;;;;;;;3.30;3.00;;;21.30;61.70;;;;;;5112913;28;20483;-84
2023/04/01 09:37:52;;;;;;;5.23;3.00;;;21.40;61.70;;;;;;5113660;28;20463;-81
2023/04/01 09:40:25;;;;;;;2.87;2.57;;;21.40;61.50;;;;;;5110872;28;20439;-83
2023/04/01 09:43:07;;;;;;;4.33;2.47;;;21.50;61.60;;;;;;5116727;28;20531;-85
2023/04/01 09:45:44;;;;;;;2.83;2.63;;;21.50;61.50;;;;;;5117932;28;20436;-84
2023/04/01 09:48:22;;;;;;;2.47;2.30;;;21.60;61.60;;;;;;5110050;28;20514;-84
2023/04/01 09:50:54;;;;;;;2.77;2.63;;;21.70;61.60;;;;;;5117275;28;20467;-84
2023/04/01 09:53:34;;;;;;;2.73;2.53;;;21.80;61.60;;;;;;5113145;27;20538;-84
2023/04/01 09:56:48;;;;;;;2.90;2.50;;;21.90;61.00;;;;;;5116958;27;20455;-85
2023/04/01 09:59:54;;;;;;;3.37;3.07;;;21.80;60.70;;;;;;5110056;28;20543;-84
2023/04/01 10:02:48;;;;;;;2.30;2.17;;;21.80;61.00;;;;;;5117199;28;20533;-85
2023/04/01 10:05:42;;;;;;;3.50;2.80;;;21.60;60.70;;;;;;5103815;28;20483;-85
2023/04/01 10:08:25;;;;;;;3.53;2.97;;;21.60;60.90;;;;;;5113383;28;20459;-84
2023/04/01 10:11:46;;;;;;;2.83;2.73;;;21.60;61.30;;;;;;5115168;28;20503;-85
2023/04/01 10:14:28;;;;;;;5.13;2.43;;;21.50;61.30;;;;;;5116627;28;20514;-84
2023/04/01 10:17:29;;;;;;;2.17;2.03;;;21.40;61.20;;;;;;5117395;27;20534;-85
2023/04/01 10:20:16;;;;;;;2.20;2.10;;;21.40;61.30;;;;;;5115373;28;20516;-84
2023/04/01 10:23:15;;;;;;;3.00;2.80;;;21.40;61.30;;;;;;5113805;27;20483;-84
2023/04/01 10:26:10;;;;;;;2.10;2.00;;;21.40;61.30;;;;;;5116757;27;20966;-84
2023/04/01 10:28:55;;;;;;;2.00;1.90;;;21.40;61.40;;;;;;5117711;27;20460;-83
2023/04/01 10:32:03;;;;;;;4.67;2.20;;;21.40;61.30;;;;;;5112256;28;20423;-84
2023/04/01 10:34:49;;;;;;;2.73;2.13;;;21.30;61.20;;;;;;5117600;27;20421;-83
2023/04/01 10:37:25;;;;;;;2.40;2.30;;;21.30;61.40;;;;;;5118309;27;20528;-83
2023/04/01 10:40:22;;;;;;;1.97;1.87;;;21.30;61.20;;;;;;5118633;28;20437;-84
2023/04/01 10:43:35;;;;;;;1.90;1.80;;;21.30;61.50;;;;;;5122873;27;20518;-84
2023/04/01 10:46:37;;;;;;;1.87;1.77;;;21.40;61.60;;;;;;5103805;28;20444;-82
2023/04/01 10:49:44;;;;;;;2.20;2.00;;;21.40;61.60;;;;;;5055286;28;20520;-83
2023/04/01 10:52:43;;;;;;;1.93;1.83;;;21.40;61.40;;;;;;5116509;28;20973;-83
2023/04/01 10:55:48;;;;;;;1.50;1.50;;;21.40;61.20;;;;;;5103553;28;20444;-83
2023/04/01 10:58:52;;;;;;;2.00;1.90;;;21.40;61.40;;;;;;5052255;28;20462;-83
2023/04/01 11:01:37;;;;;;;3.20;2.00;;;21.50;61.50;;;;;;5111904;28;20431;-85
2023/04/01 11:04:52;;;;;;;1.90;1.80;;;21.50;61.10;;;;;;5118777;27;20419;-83
2023/04/01 11:07:44;;;;;;;2.00;1.73;;;21.50;61.30;;;;;;5110101;28;20547;-83
2023/04/01 11:11:11;;;;;;;2.03;1.93;;;21.50;61.10;;;;;;5113721;28;20971;-83
2023/04/01 11:14:03;;;;;;;4.90;1.93;;;21.60;61.20;;;;;;5115780;28;20448;-84
2023/04/01 11:16:59;;;;;;;2.03;1.70;;;21.60;60.90;;;;;;5113179;28;20446;-85
2023/04/01 11:20:11;;;;;;;1.63;1.53;;;21.70;61.20;;;;;;5103326;28;20455;-84
2023/04/01 11:22:57;;;;;;;1.90;1.80;;;21.80;60.70;;;;;;5112179;28;20936;-86
2023/04/01 11:25:37;;;;;;;2.00;1.90;;;21.70;60.30;;;;;;5109533;28;20466;-83
2023/04/01 11:28:17;;;;;;;2.10;1.70;;;21.70;60.50;;;;;;5116800;27;20459;-84
2023/04/01 11:30:55;;;;;;;2.03;1.93;;;21.60;60.50;;;;;;5113426;28;20467;-85
2023/04/01 11:33:24;;;;;;;2.80;1.70;;;21.60;60.30;;;;;;5116398;27;20462;-84
2023/04/01 11:36:13;;;;;;;2.00;1.90;;;21.60;60.40;;;;;;5116195;28;20455;-85
2023/04/01 11:38:50;;;;;;;1.67;1.63;;;21.60;60.50;;;;;;5115995;28;20494;-85
2023/04/01 11:41:25;;;;;;;1.70;1.60;;;21.60;60.60;;;;;;5099892;28;20443;-85
2023/04/01 11:44:01;;;;;;;1.97;1.87;;;21.60;60.50;;;;;;5115640;27;20423;-86
2023/04/01 11:46:32;;;;;;;1.93;1.83;;;21.50;60.40;;;;;;5115125;28;20449;-86
2023/04/01 11:49:05;;;;;;;1.93;1.83;;;21.40;60.30;;;;;;5102219;27;20460;-86
2023/04/01 11:52:08;;;;;;;1.90;1.80;;;21.40;60.50;;;;;;5113456;27;20458;-87
2023/04/01 11:54:52;;;;;;;2.93;1.80;;;21.40;60.70;;;;;;5023825;28;20466;-86
2023/04/01 11:57:37;;;;;;;4.20;1.60;;;21.30;60.60;;;;;;5105198;28;20499;-86
2023/04/01 12:00:20;;;;;;;2.20;2.10;;;21.30;60.80;;;;;;5113708;27;20432;-86
2023/04/01 12:02:53;;;;;;;2.37;2.27;;;21.20;60.80;;;;;;5114156;28;20446;-86
2023/04/01 12:05:27;;;;;;;2.40;2.20;;;21.20;60.70;;;;;;5114131;28;20463;-86
2023/04/01 12:08:10;;;;;;;2.00;1.90;;;21.20;60.90;;;;;;5114039;27;20456;-86
2023/04/01 12:10:41;;;;;;;2.13;2.03;;;21.20;60.90;;;;;;5108948;28;20468;-85
2023/04/01 12:13:16;;;;;;;2.30;2.20;;;21.10;60.90;;;;;;5114185;27;20432;-84
2023/04/01 12:15:55;;;;;;;2.13;2.03;;;21.10;61.10;;;;;;5111456;28;20447;-86
2023/04/01 12:18:25;;;;;;;7.20;3.07;;;21.10;60.80;;;;;;5113787;27;20459;-85
2023/04/01 12:20:56;;;;;;;2.80;2.07;;;21.20;61.10;;;;;;5113933;28;20443;-85
2023/04/01 12:23:47;;;;;;;2.47;2.03;;;21.20;61.00;;;;;;5113603;28;20543;-84
2023/04/01 12:26:27;;;;;;;2.20;2.10;;;21.20;60.90;;;;;;5106667;28;20486;-86
2023/04/01 12:29:09;;;;;;;2.23;2.00;;;21.10;60.80;;;;;;5109118;27;20520;-86
2023/04/01 12:31:43;;;;;;;2.10;2.00;;;21.10;60.80;;;;;;5113635;27;20535;-85
2023/04/01 12:34:33;;;;;;;2.10;2.00;;;21.10;60.70;;;;;;5106221;28;20482;-83
2023/04/01 12:37:06;;;;;;;2.53;2.23;;;21.10;60.70;;;;;;5113810;27;20448;-84
2023/04/01 12:39:45;;;;;;;2.30;2.20;;;21.10;60.60;;;;;;5114141;28;20517;-85
2023/04/01 12:42:19;;;;;;;2.50;2.40;;;21.00;60.70;;;;;;5106705;28;20432;-85
2023/04/01 12:44:56;;;;;;;2.33;2.23;;;21.00;60.90;;;;;;5109928;28;20455;-86
2023/04/01 12:47:40;;;;;;;2.77;2.57;;;21.00;60.90;;;;;;5114192;27;20559;-85
2023/04/01 12:50:27;;;;;;;2.40;2.30;;;20.90;60.90;;;;;;5114607;28;20447;-85
2023/04/01 12:53:12;;;;;;;2.20;2.10;;;20.90;61.00;;;;;;5112569;28;20454;-83
2023/04/01 12:55:40;;;;;;;2.40;2.30;;;20.90;61.20;;;;;;5115376;28;20450;-85
2023/04/01 12:58:42;;;;;;;2.20;2.10;;;20.90;61.90;;;;;;5113573;28;20463;-85
2023/04/01 13:01:35;;;;;;;2.63;2.47;;;20.90;61.20;;;;;;5110397;27;20451;-86
2023/04/01 13:04:21;;;;;;;2.53;2.30;;;20.90;61.10;;;;;;5113410;28;20453;-84
2023/04/01 13:06:54;;;;;;;2.80;2.60;;;20.90;61.00;;;;;;5115336;27;20452;-85
2023/04/01 13:09:28;;;;;;;2.30;2.20;;;20.90;61.10;;;;;;5118504;27;20440;-84
2023/04/01 13:12:07;;;;;;;3.53;2.50;;;20.90;61.10;;;;;;5107263;28;20470;-84
2023/04/01 13:14:48;;;;;;;2.40;2.20;;;20.90;61.00;;;;;;5111457;28;20454;-85
2023/04/01 13:17:18;;;;;;;2.23;2.13;;;20.90;61.00;;;;;;5112105;28;20455;-85
2023/04/01 13:19:48;;;;;;;2.57;2.37;;;20.80;61.00;;;;;;5113176;28;20432;-86
2023/04/01 13:22:39;;;;;;;2.27;2.17;;;20.80;61.00;;;;;;5112997;28;20446;-86
2023/04/01 13:25:10;;;;;;;2.40;2.30;;;20.90;61.10;;;;;;5113387;27;20511;-86
2023/04/01 13:27:39;;;;;;;2.57;2.47;;;20.90;61.00;;;;;;5111412;27;20456;-85